Time;durP1;ratioP1;P1;durP2;ratioP2;P2;SDS_P1;SDS_P2;PMS_P1;PMS_P2;Temp;Humidity;BMP_temperature;BMP_pressure;BME280_temperature;BME280_humidity;BME280_pressure;Samples;Min_cycle;Max_cycle;Signal;HPM_P1;HPM_P2
2024/04/18 00:00:38;;;;;;;;;;;;;;;7.57;77.55;99985.34;5280807;27;19962;-87
2024/04/18 00:03:03;;;;;;;;;;;;;;;7.62;78.04;99991.09;5281796;27;20240;-86
2024/04/18 00:05:29;;;;;;;;;;;;;;;7.73;77.48;99993.19;5281947;27;19933;-86
2024/04/18 00:07:54;;;;;;;;;;;;;;;7.72;78.45;99982.03;5281932;27;19997;-88
2024/04/18 00:10:19;;;;;;;;;;;;;;;7.81;76.97;99990.25;5281986;27;19934;-86
2024/04/18 00:12:45;;;;;;;;;;;;;;;7.81;77.18;99985.09;5311396;27;20372;-86
2024/04/18 00:15:10;;;;;;;;;;;;;;;7.89;76.51;99998.44;5311479;26;20321;-86
2024/04/18 00:17:36;;;;;;;;;;;;;;;7.88;77.15;100001.94;5281674;27;19927;-87
2024/04/18 00:20:01;;;;;;;;;;;;;;;7.86;76.38;99993.41;5311900;27;19933;-87
2024/04/18 00:22:26;;;;;;;;;;;;;;;7.88;75.95;100000.19;5281245;27;19997;-88
2024/04/18 00:24:52;;;;;;;;;;;;;;;7.83;75.93;99996.97;5281258;27;19938;-87
2024/04/18 00:27:17;;;;;;;;;;;;;;;7.82;75.56;99992.75;5280628;27;19927;-87
2024/04/18 00:29:42;;;;;;;;;;;;;;;7.69;76.26;99987.34;5281496;27;19926;-87
2024/04/18 00:32:08;;;;;;;;;;;;;;;7.70;76.52;99983.88;5281424;27;20352;-87
2024/04/18 00:34:33;;;;;;;;;;;;;;;7.70;76.50;99985.59;5281033;27;19938;-88
2024/04/18 00:36:59;;;;;;;;;;;;;;;7.67;77.00;99984.03;5281046;27;19933;-86
2024/04/18 00:39:24;;;;;;;;;;;;;;;7.66;76.11;99977.16;5281038;27;19927;-89
2024/04/18 00:41:49;;;;;;;;;;;;;;;7.74;76.65;99982.81;5281156;27;19926;-86
2024/04/18 00:44:15;;;;;;;;;;;;;;;7.76;76.23;99980.16;5280870;27;19934;-86
2024/04/18 00:46:40;;;;;;;;;;;;;;;7.86;75.26;99980.53;5280800;27;19926;-87
2024/04/18 00:49:05;;;;;;;;;;;;;;;7.82;75.33;99986.75;5280480;26;20345;-86
2024/04/18 00:51:31;;;;;;;;;;;;;;;7.84;74.86;99984.94;5281385;27;20349;-87
2024/04/18 00:53:56;;;;;;;;;;;;;;;7.85;75.44;99986.59;5252969;27;20225;-86
2024/04/18 00:56:21;;;;;;;;;;;;;;;7.93;74.36;99984.50;5281070;27;19938;-88
2024/04/18 00:58:50;;;;;;;;;;;;;;;7.90;74.86;99974.34;5281240;27;19927;-86
2024/04/18 01:01:15;;;;;;;;;;;;;;;7.84;74.89;99970.31;5252709;27;20311;-87
2024/04/18 01:03:40;;;;;;;;;;;;;;;7.85;75.51;99973.72;5252973;27;19938;-87
2024/04/18 01:06:06;;;;;;;;;;;;;;;7.86;74.82;99975.38;5252634;27;20030;-87
2024/04/18 01:08:31;;;;;;;;;;;;;;;7.79;74.91;99971.47;5280673;27;19926;-87
2024/04/18 01:10:57;;;;;;;;;;;;;;;7.86;74.81;99963.34;5311049;27;19996;-86
2024/04/18 01:13:22;;;;;;;;;;;;;;;7.87;76.25;99965.03;5283159;27;19927;-87
2024/04/18 01:15:47;;;;;;;;;;;;;;;7.81;75.91;99964.50;5283778;27;20367;-86
2024/04/18 01:18:13;;;;;;;;;;;;;;;7.79;76.32;99962.00;5284105;27;20352;-87
2024/04/18 01:20:38;;;;;;;;;;;;;;;7.71;76.12;99964.94;5284113;27;20364;-86
2024/04/18 01:23:03;;;;;;;;;;;;;;;7.66;76.47;99961.72;5283355;27;20353;-86
2024/04/18 01:25:29;;;;;;;;;;;;;;;7.62;76.50;99961.97;5283666;27;19996;-86
2024/04/18 01:27:54;;;;;;;;;;;;;;;7.59;77.07;99955.22;5284043;27;19934;-86
2024/04/18 01:30:19;;;;;;;;;;;;;;;7.49;77.72;99959.13;5283838;27;19996;-87
2024/04/18 01:32:45;;;;;;;;;;;;;;;7.48;77.19;99958.31;5283767;27;20007;-86
2024/04/18 01:35:10;;;;;;;;;;;;;;;7.36;77.72;99963.16;5283464;27;19926;-86
2024/04/18 01:37:35;;;;;;;;;;;;;;;7.35;78.00;99951.22;5283460;27;19927;-87
2024/04/18 01:40:01;;;;;;;;;;;;;;;7.35;78.34;99953.78;5283794;27;20303;-86
2024/04/18 01:42:26;;;;;;;;;;;;;;;7.40;78.57;99951.84;5283463;27;20242;-86
2024/04/18 01:44:52;;;;;;;;;;;;;;;7.45;78.46;99942.16;5283653;27;19942;-87
2024/04/18 01:47:18;;;;;;;;;;;;;;;7.53;78.24;99939.22;5283201;27;19933;-87
2024/04/18 01:49:43;;;;;;;;;;;;;;;7.52;78.45;99946.13;5283407;27;20264;-87
2024/04/18 01:52:08;;;;;;;;;;;;;;;7.51;78.19;99936.72;5283647;27;20233;-88
2024/04/18 01:54:34;;;;;;;;;;;;;;;7.46;78.11;99944.66;5283877;27;20334;-87
2024/04/18 01:57:02;;;;;;;;;;;;;;;7.46;78.51;99938.66;5283517;27;20248;-87
2024/04/18 01:59:28;;;;;;;;;;;;;;;7.48;78.10;99931.72;5283939;27;19933;-87
2024/04/18 02:01:53;;;;;;;;;;;;;;;7.52;78.45;99932.41;5255554;27;19926;-86
2024/04/18 02:04:19;;;;;;;;;;;;;;;7.47;77.66;99941.19;5255257;27;19934;-86
2024/04/18 02:06:44;;;;;;;;;;;;;;;7.47;78.36;99943.78;5283296;27;19933;-87
2024/04/18 02:09:09;;;;;;;;;;;;;;;7.52;77.69;99938.38;5255337;27;19927;-87
2024/04/18 02:11:36;;;;;;;;;;;;;;;7.47;77.78;99943.78;5283877;27;19926;-88
2024/04/18 02:14:01;;;;;;;;;;;;;;;7.58;77.40;99945.00;5283486;27;19926;-86
2024/04/18 02:16:26;;;;;;;;;;;;;;;7.60;77.50;99946.59;5283131;27;20009;-87
2024/04/18 02:18:52;;;;;;;;;;;;;;;7.64;77.13;99947.25;5283283;27;19930;-87
2024/04/18 02:21:17;;;;;;;;;;;;;;;7.61;76.99;99953.41;5254801;27;19933;-88
2024/04/18 02:23:42;;;;;;;;;;;;;;;7.71;77.05;99958.94;5282006;27;19926;-87
2024/04/18 02:26:08;;;;;;;;;;;;;;;7.67;76.66;99953.13;5282837;27;19926;-86
2024/04/18 02:28:33;;;;;;;;;;;;;;;7.70;76.62;99949.56;5313310;27;19930;-88
2024/04/18 02:31:03;;;;;;;;;;;;;;;7.69;75.98;99971.91;5254937;27;19958;-86
2024/04/18 02:33:29;;;;;;;;;;;;;;;7.67;76.36;99962.56;5284181;27;19933;-87
2024/04/18 02:35:54;;;;;;;;;;;;;;;7.70;76.31;99965.84;5282636;27;19927;-87
2024/04/18 02:38:19;;;;;;;;;;;;;;;7.70;76.21;99971.00;5282876;27;19934;-88
2024/04/18 02:40:45;;;;;;;;;;;;;;;7.70;76.32;99970.16;5254874;27;20261;-88
2024/04/18 02:43:10;;;;;;;;;;;;;;;7.70;76.16;99958.13;5282466;27;19927;-87
2024/04/18 02:45:35;;;;;;;;;;;;;;;7.60;76.35;99962.03;5282658;27;19934;-87
2024/04/18 02:48:01;;;;;;;;;;;;;;;7.61;76.37;99958.56;5282869;27;19938;-86
2024/04/18 02:50:26;;;;;;;;;;;;;;;7.61;76.47;99958.56;5282586;27;20009;-86
2024/04/18 02:52:51;;;;;;;;;;;;;;;7.56;76.61;99952.78;5283028;27;19932;-85
2024/04/18 02:55:17;;;;;;;;;;;;;;;7.62;76.56;99960.22;5282906;27;19926;-85
2024/04/18 02:57:42;;;;;;;;;;;;;;;7.47;76.83;99964.34;5254913;27;19926;-85
2024/04/18 03:00:07;;;;;;;;;;;;;;;7.43;77.28;99969.69;5254792;27;19934;-86
2024/04/18 03:02:33;;;;;;;;;;;;;;;7.46;77.01;99972.13;5282778;27;19933;-85
2024/04/18 03:04:58;;;;;;;;;;;;;;;7.50;77.01;99965.94;5254241;27;19933;-85
2024/04/18 03:07:23;;;;;;;;;;;;;;;7.51;76.76;99977.91;5254562;27;19926;-85
2024/04/18 03:09:49;;;;;;;;;;;;;;;7.58;77.24;99979.28;5282693;27;19942;-87
2024/04/18 03:12:14;;;;;;;;;;;;;;;7.70;76.69;99978.72;5254656;27;19926;-86
2024/04/18 03:14:42;;;;;;;;;;;;;;;7.69;77.08;99979.63;5254669;27;19931;-86
2024/04/18 03:17:08;;;;;;;;;;;;;;;7.69;76.54;99981.38;5254123;27;19954;-85
2024/04/18 03:19:33;;;;;;;;;;;;;;;7.64;75.87;99991.88;5282464;27;19927;-86
2024/04/18 03:21:59;;;;;;;;;;;;;;;7.62;76.36;99990.28;5282738;27;19930;-85
2024/04/18 03:24:24;;;;;;;;;;;;;;;7.62;77.17;99993.69;5282629;27;19926;-84
2024/04/18 03:26:50;;;;;;;;;;;;;;;7.55;76.29;99989.72;5253945;27;20288;-85
2024/04/18 03:29:16;;;;;;;;;;;;;;;7.62;76.70;99985.97;5254116;27;19954;-86
2024/04/18 03:31:42;;;;;;;;;;;;;;;7.60;76.30;99982.63;5282382;27;19926;-85
2024/04/18 03:34:07;;;;;;;;;;;;;;;7.61;76.58;99989.44;5254120;27;20360;-86
2024/04/18 03:36:35;;;;;;;;;;;;;;;7.60;76.77;99982.63;5281983;27;19926;-86
2024/04/18 03:39:01;;;;;;;;;;;;;;;7.57;76.92;99981.91;5250163;27;20244;-87
2024/04/18 03:41:26;;;;;;;;;;;;;;;7.53;76.77;99983.81;5281105;27;20361;-88
2024/04/18 03:43:53;;;;;;;;;;;;;;;7.42;76.94;99975.75;5280570;27;19927;-86
2024/04/18 03:46:19;;;;;;;;;;;;;;;7.44;76.60;99997.09;5309257;27;20241;-89
2024/04/18 03:48:45;;;;;;;;;;;;;;;7.46;77.16;99985.00;5311016;27;19927;-88
2024/04/18 03:51:10;;;;;;;;;;;;;;;7.43;77.16;99985.16;5311424;27;20225;-87
2024/04/18 03:53:35;;;;;;;;;;;;;;;7.41;77.18;99984.38;5253759;27;19938;-88
2024/04/18 03:56:01;;;;;;;;;;;;;;;7.48;77.10;99988.34;5253612;27;19926;-87
2024/04/18 03:58:26;;;;;;;;;;;;;;;7.51;76.96;99992.50;5311812;27;19927;-86
2024/04/18 04:00:51;;;;;;;;;;;;;;;7.53;76.74;99994.09;5253365;27;19963;-88
2024/04/18 04:03:17;;;;;;;;;;;;;;;7.60;76.33;99992.94;5253636;27;19949;-90
2024/04/18 04:05:42;;;;;;;;;;;;;;;7.66;76.48;99997.78;5277104;27;19934;-90
2024/04/18 04:08:09;;;;;;;;;;;;;;;7.74;75.97;100005.97;5280425;27;20554;-89
2024/04/18 04:10:34;;;;;;;;;;;;;;;7.86;75.92;100003.72;5279610;27;19927;-90
2024/04/18 04:12:59;;;;;;;;;;;;;;;7.99;75.41;100002.25;5281290;27;19933;-89
2024/04/18 04:15:25;;;;;;;;;;;;;;;8.08;74.95;100006.97;5311702;27;19927;-90
2024/04/18 04:17:50;;;;;;;;;;;;;;;8.05;74.99;100012.22;5280814;27;19933;-82
2024/04/18 04:20:15;;;;;;;;;;;;;;;8.13;75.35;100009.28;5306849;27;20402;-92
2024/04/18 04:22:41;;;;;;;;;;;;;;;8.10;74.91;100012.88;5310930;27;19927;-87
2024/04/18 04:25:06;;;;;;;;;;;;;;;8.08;74.45;100014.69;5279833;27;19938;-87
2024/04/18 04:27:32;;;;;;;;;;;;;;;8.15;74.67;100013.47;5310077;27;19938;-84
2024/04/18 04:29:58;;;;;;;;;;;;;;;8.21;74.54;100018.31;5282127;27;20253;-88
2024/04/18 04:32:23;;;;;;;;;;;;;;;8.21;74.59;100014.91;5280821;27;19996;-87
2024/04/18 04:34:49;;;;;;;;;;;;;;;8.26;75.23;100024.09;5281724;27;19938;-90
2024/04/18 04:37:15;;;;;;;;;;;;;;;8.31;74.42;100027.28;5281299;27;19934;-89
2024/04/18 04:39:40;;;;;;;;;;;;;;;8.34;73.84;100022.00;5283775;27;19927;-92
2024/04/18 04:42:06;;;;;;;;;;;;;;;8.37;73.97;100030.50;5283499;27;19927;-89
2024/04/18 04:44:31;;;;;;;;;;;;;;;8.39;73.63;100034.66;5314808;27;19926;-90
2024/04/18 04:46:56;;;;;;;;;;;;;;;8.51;73.61;100028.06;5280723;27;19934;-83
2024/04/18 04:49:21;;;;;;;;;;;;;;;8.46;73.25;100032.63;5284307;27;19926;-92
2024/04/18 04:51:47;;;;;;;;;;;;;;;8.56;73.61;100046.72;5313549;27;19931;-87
2024/04/18 04:54:12;;;;;;;;;;;;;;;8.58;73.36;100047.50;5283274;27;19927;-91
2024/04/18 04:56:37;;;;;;;;;;;;;;;8.67;73.58;100054.75;5284434;27;20011;-91
2024/04/18 04:59:03;;;;;;;;;;;;;;;8.70;72.79;100058.94;5284652;27;19992;-92
2024/04/18 05:01:28;;;;;;;;;;;;;;;8.69;73.03;100058.09;5282165;27;19934;-86
2024/04/18 05:03:53;;;;;;;;;;;;;;;8.66;72.36;100060.84;5312363;27;19926;-90
2024/04/18 05:06:19;;;;;;;;;;;;;;;8.75;72.56;100065.53;5311240;27;20409;-88
2024/04/18 05:08:45;;;;;;;;;;;;;;;8.85;72.20;100069.31;5286187;27;20864;-84
2024/04/18 05:11:10;;;;;;;;;;;;;;;8.93;72.14;100076.66;5314976;27;19933;-91
2024/04/18 05:13:35;;;;;;;;;;;;;;;8.98;71.64;100073.84;5314427;27;19927;-89
2024/04/18 05:16:01;;;;;;;;;;;;;;;9.01;70.13;100078.84;5312905;27;19937;-91
2024/04/18 05:18:26;;;;;;;;;;;;;;;9.09;70.75;100087.03;5283492;27;19976;-86
2024/04/18 05:20:51;;;;;;;;;;;;;;;9.16;70.35;100084.06;5276103;27;19926;-86
2024/04/18 05:23:17;;;;;;;;;;;;;;;9.25;70.65;100077.59;5282231;27;20294;-87
2024/04/18 05:25:42;;;;;;;;;;;;;;;9.19;69.86;100083.06;5314806;27;19927;-90
2024/04/18 05:28:13;;;;;;;;;;;;;;;9.42;70.48;100085.25;5285020;27;19934;-92
2024/04/18 05:33:25;;;;;;;;;;;;;;;9.71;69.31;100090.63;5289381;27;19933;-91
2024/04/18 05:35:51;;;;;;;;;;;;;;;9.78;69.59;100092.81;5285607;26;19938;-92
2024/04/18 05:38:16;;;;;;;;;;;;;;;9.69;68.03;100095.06;5315916;27;19926;-93
2024/04/18 05:40:41;;;;;;;;;;;;;;;9.39;68.73;100098.34;5313695;27;19933;-91
2024/04/18 05:43:07;;;;;;;;;;;;;;;9.26;69.14;100104.25;5283065;27;19927;-88
2024/04/18 05:45:32;;;;;;;;;;;;;;;9.35;70.13;100096.84;5312992;27;19933;-90
2024/04/18 05:47:57;;;;;;;;;;;;;;;9.36;69.22;100095.09;5312723;27;20407;-91
2024/04/18 05:50:23;;;;;;;;;;;;;;;9.37;69.27;100097.59;5283388;27;20320;-92
2024/04/18 05:52:48;;;;;;;;;;;;;;;9.35;69.77;100088.28;5283187;27;19926;-87
2024/04/18 05:55:14;;;;;;;;;;;;;;;9.17;69.78;100096.06;5279702;27;20034;-84
2024/04/18 05:57:39;;;;;;;;;;;;;;;9.20;70.30;100090.72;5280623;27;19934;-87
2024/04/18 06:00:05;;;;;;;;;;;;;;;9.26;70.28;100079.25;5280432;27;20053;-88
2024/04/18 06:02:30;;;;;;;;;;;;;;;9.20;70.33;100082.16;5276811;27;19997;-87
2024/04/18 06:04:55;;;;;;;;;;;;;;;9.27;69.89;100085.25;5280225;27;19926;-86
2024/04/18 06:07:21;;;;;;;;;;;;;;;9.35;70.27;100099.44;5282076;27;20412;-88
2024/04/18 06:09:46;;;;;;;;;;;;;;;9.15;69.66;100090.13;5281332;27;19926;-88
2024/04/18 06:12:12;;;;;;;;;;;;;;;9.21;69.74;100091.56;5280978;27;19927;-82
2024/04/18 06:14:37;;;;;;;;;;;;;;;9.20;69.93;100082.16;5311315;27;19958;-83
2024/04/18 06:17:02;;;;;;;;;;;;;;;9.32;69.74;100084.09;5281754;27;20256;-83
2024/04/18 06:19:28;;;;;;;;;;;;;;;9.43;69.82;100092.09;5311795;27;19934;-88
2024/04/18 06:21:53;;;;;;;;;;;;;;;9.61;69.12;100089.47;5314082;27;19927;-91
2024/04/18 06:24:18;;;;;;;;;;;;;;;9.68;68.86;100091.63;5282661;27;19934;-89
2024/04/18 06:26:45;;;;;;;;;;;;;;;9.84;68.33;100089.06;5281499;27;19937;-85
2024/04/18 06:29:10;;;;;;;;;;;;;;;9.92;67.53;100088.63;5312109;27;19934;-87
2024/04/18 06:31:36;;;;;;;;;;;;;;;9.99;66.16;100089.97;5254193;27;19996;-90
2024/04/18 06:34:01;;;;;;;;;;;;;;;10.07;66.07;100093.81;5282798;27;19951;-90
2024/04/18 06:36:26;;;;;;;;;;;;;;;10.26;66.72;100085.06;5310392;27;19926;-86
2024/04/18 06:38:52;;;;;;;;;;;;;;;10.27;65.68;100102.25;5312451;27;19938;-88
2024/04/18 06:41:17;;;;;;;;;;;;;;;10.38;65.49;100104.22;5287997;27;19953;-92
2024/04/18 06:43:42;;;;;;;;;;;;;;;10.50;64.84;100108.69;5318645;27;19942;-90
2024/04/18 06:46:08;;;;;;;;;;;;;;;10.39;64.18;100103.31;5283317;27;19997;-88
2024/04/18 06:48:34;;;;;;;;;;;;;;;10.56;64.85;100096.25;5311445;27;19926;-89
2024/04/18 06:50:59;;;;;;;;;;;;;;;10.52;64.49;100107.72;5283384;27;19933;-91
2024/04/18 06:53:24;;;;;;;;;;;;;;;10.50;64.32;100101.75;5282478;27;20327;-83
2024/04/18 06:55:50;;;;;;;;;;;;;;;10.58;63.84;100104.75;5281228;27;19934;-82
2024/04/18 06:58:15;;;;;;;;;;;;;;;10.51;63.82;100105.19;5310484;27;20341;-84
2024/04/18 07:00:41;;;;;;;;;;;;;;;10.54;63.22;100110.19;5281083;27;19926;-92
2024/04/18 07:03:07;;;;;;;;;;;;;;;10.76;63.89;100108.03;5312926;27;19998;-92
2024/04/18 07:05:33;;;;;;;;;;;;;;;10.91;62.92;100124.41;5282343;27;19941;-87
2024/04/18 07:07:58;;;;;;;;;;;;;;;10.75;61.63;100126.25;5314404;27;20248;-89
2024/04/18 07:10:23;;;;;;;;;;;;;;;10.93;61.84;100114.00;5310282;27;20443;-82
2024/04/18 07:12:49;;;;;;;;;;;;;;;10.93;60.75;100125.19;5276091;27;20260;-82
2024/04/18 07:15:14;;;;;;;;;;;;;;;10.97;60.58;100131.84;5280929;27;19938;-85
2024/04/18 07:17:40;;;;;;;;;;;;;;;11.19;60.19;100127.06;5310171;27;19926;-83
2024/04/18 07:20:06;;;;;;;;;;;;;;;11.17;60.57;100123.72;5280599;27;19926;-85
2024/04/18 07:22:31;;;;;;;;;;;;;;;11.32;60.57;100127.19;5311760;27;19933;-91
2024/04/18 07:24:57;;;;;;;;;;;;;;;11.29;58.80;100140.28;5281877;27;19926;-87
2024/04/18 07:27:24;;;;;;;;;;;;;;;11.33;59.19;100144.38;5310946;27;19978;-85
2024/04/18 07:29:49;;;;;;;;;;;;;;;11.32;59.78;100131.53;5282107;27;19926;-88
2024/04/18 07:32:14;;;;;;;;;;;;;;;11.39;59.20;100135.41;5283297;27;19941;-90
2024/04/18 07:34:40;;;;;;;;;;;;;;;11.36;58.08;100135.59;5284106;27;19926;-84
2024/04/18 07:37:05;;;;;;;;;;;;;;;11.41;58.45;100126.63;5311710;27;19926;-90
2024/04/18 07:39:30;;;;;;;;;;;;;;;11.55;58.77;100125.78;5283106;27;19926;-91
2024/04/18 07:41:56;;;;;;;;;;;;;;;11.64;58.91;100130.41;5282716;27;19971;-89
2024/04/18 07:44:21;;;;;;;;;;;;;;;11.69;57.22;100130.94;5282591;27;19927;-88
2024/04/18 07:46:48;;;;;;;;;;;;;;;11.68;57.78;100129.28;5281182;27;19927;-89
2024/04/18 07:49:13;;;;;;;;;;;;;;;11.95;57.89;100134.56;5281020;27;19927;-88
2024/04/18 07:51:38;;;;;;;;;;;;;;;12.08;57.36;100145.00;5281680;27;20360;-85
2024/04/18 07:54:04;;;;;;;;;;;;;;;12.29;57.56;100151.44;5280651;27;19934;-87
2024/04/18 07:56:29;;;;;;;;;;;;;;;12.31;56.42;100159.94;5278812;27;19993;-86
2024/04/18 07:58:54;;;;;;;;;;;;;;;12.31;57.06;100161.72;5307527;27;19927;-89
2024/04/18 08:01:20;;;;;;;;;;;;;;;12.10;56.11;100156.13;5277410;27;19962;-90
2024/04/18 08:03:45;;;;;;;;;;;;;;;11.99;57.11;100151.56;5309878;27;19927;-88
2024/04/18 08:06:11;;;;;;;;;;;;;;;12.02;55.79;100154.00;5281296;27;19933;-89
2024/04/18 08:08:36;;;;;;;;;;;;;;;12.03;57.14;100160.84;5280173;27;19926;-86
2024/04/18 08:11:01;;;;;;;;;;;;;;;12.28;56.47;100160.13;5308606;27;19955;-89
2024/04/18 08:13:27;;;;;;;;;;;;;;;12.13;57.25;100165.47;5309861;27;19938;-89
2024/04/18 08:15:52;;;;;;;;;;;;;;;12.21;56.25;100169.25;5308146;27;19934;-90
2024/04/18 08:18:18;;;;;;;;;;;;;;;12.15;56.53;100167.03;5311113;27;19926;-91
2024/04/18 08:20:43;;;;;;;;;;;;;;;11.90;57.52;100165.13;5280904;27;19926;-90
2024/04/18 08:23:09;;;;;;;;;;;;;;;11.72;57.65;100167.06;5282246;27;20347;-86
2024/04/18 08:25:34;;;;;;;;;;;;;;;11.70;56.81;100162.88;5312272;27;20273;-86
2024/04/18 08:27:59;;;;;;;;;;;;;;;11.85;56.67;100150.78;5311672;27;19933;-90
2024/04/18 08:30:25;;;;;;;;;;;;;;;12.08;56.01;100155.34;5283958;27;19927;-88
2024/04/18 08:32:50;;;;;;;;;;;;;;;12.38;55.23;100170.75;5282739;27;20345;-84
2024/04/18 08:35:18;;;;;;;;;;;;;;;12.65;53.53;100162.97;5313638;27;20256;-85
2024/04/18 08:37:44;;;;;;;;;;;;;;;12.73;51.35;100171.09;5311793;27;20248;-88
2024/04/18 08:40:09;;;;;;;;;;;;;;;12.72;53.07;100164.25;5285325;27;19927;-92
2024/04/18 08:42:35;;;;;;;;;;;;;;;12.86;52.21;100171.94;5284048;27;19933;-89
2024/04/18 08:45:00;;;;;;;;;;;;;;;12.90;50.28;100173.44;5315048;27;20248;-87
2024/04/18 08:47:26;;;;;;;;;;;;;;;12.65;51.57;100178.53;5284097;27;19934;-86
2024/04/18 08:49:52;;;;;;;;;;;;;;;12.83;51.72;100182.53;5282954;27;19926;-84
2024/04/18 08:52:18;;;;;;;;;;;;;;;12.91;52.34;100185.47;5253668;27;19933;-90
2024/04/18 08:54:43;;;;;;;;;;;;;;;13.01;50.35;100177.06;5282454;27;19926;-88
2024/04/18 08:57:08;;;;;;;;;;;;;;;13.20;49.65;100180.97;5313088;27;19927;-85
2024/04/18 08:59:34;;;;;;;;;;;;;;;13.02;49.74;100183.94;5282899;27;19934;-92
2024/04/18 09:01:59;;;;;;;;;;;;;;;13.26;51.60;100190.09;5285027;27;19927;-87
2024/04/18 09:04:25;;;;;;;;;;;;;;;13.20;49.54;100186.19;5283690;27;19926;-89
2024/04/18 09:06:50;;;;;;;;;;;;;;;13.22;50.03;100185.25;5283412;27;19933;-88
2024/04/18 09:09:18;;;;;;;;;;;;;;;13.07;50.56;100195.66;5283039;27;19937;-84
2024/04/18 09:11:49;;;;;;;;;;;;;;;12.92;50.91;100201.88;5311271;27;20306;-89
2024/04/18 09:14:14;;;;;;;;;;;;;;;13.16;51.57;100220.19;5309878;26;19937;-90
2024/04/18 09:16:40;;;;;;;;;;;;;;;13.25;50.27;100208.41;5283109;27;20436;-84
2024/04/18 09:19:05;;;;;;;;;;;;;;;13.20;51.25;100222.53;5283002;27;20359;-91
2024/04/18 09:21:32;;;;;;;;;;;;;;;13.37;50.94;100218.84;5285903;27;19926;-89
2024/04/18 09:23:57;;;;;;;;;;;;;;;13.08;51.08;100218.13;5283429;27;19938;-88
2024/04/18 09:26:29;;;;;;;;;;;;;;;13.25;51.14;100218.78;5283443;27;20403;-90
2024/04/18 09:28:55;;;;;;;;;;;;;;;13.32;51.02;100226.09;5312116;27;20655;-89
2024/04/18 09:31:21;;;;;;;;;;;;;;;13.35;50.28;100225.88;5283749;27;19926;-89
2024/04/18 09:33:48;;;;;;;;;;;;;;;13.31;50.48;100219.22;5312068;27;20000;-90
2024/04/18 09:36:15;;;;;;;;;;;;;;;13.31;50.74;100221.81;5310663;27;19938;-89
2024/04/18 09:38:41;;;;;;;;;;;;;;;13.19;51.03;100227.84;5312951;27;19926;-88
2024/04/18 09:41:10;;;;;;;;;;;;;;;13.16;50.95;100225.38;5280476;27;19927;-86
2024/04/18 09:43:44;;;;;;;;;;;;;;;12.85;51.42;100219.59;5279476;27;19927;-88
2024/04/18 09:46:11;;;;;;;;;;;;;;;12.97;50.86;100219.75;5313611;27;19927;-90
2024/04/18 09:48:36;;;;;;;;;;;;;;;13.08;50.92;100218.13;5278223;27;19933;-86
2024/04/18 09:51:05;;;;;;;;;;;;;;;13.13;51.89;100215.22;5279484;27;19926;-86
2024/04/18 09:53:30;;;;;;;;;;;;;;;12.96;51.26;100228.47;5281784;27;19927;-82
2024/04/18 09:55:56;;;;;;;;;;;;;;;13.21;50.79;100223.38;5312615;27;20004;-83
2024/04/18 09:58:22;;;;;;;;;;;;;;;13.44;50.26;100235.66;5311287;27;19935;-90
2024/04/18 10:00:47;;;;;;;;;;;;;;;13.37;48.37;100234.41;5282222;27;20422;-88
2024/04/18 10:03:15;;;;;;;;;;;;;;;13.46;47.66;100244.16;5310851;27;19934;-86
2024/04/18 10:05:44;;;;;;;;;;;;;;;13.34;48.42;100245.00;5282159;27;19934;-87
2024/04/18 10:08:10;;;;;;;;;;;;;;;13.37;49.01;100234.41;5283637;27;20348;-93
2024/04/18 10:10:54;;;;;;;;;;;;;;;13.31;49.45;100240.00;5311154;27;19934;-91
2024/04/18 10:13:25;;;;;;;;;;;;;;;13.35;47.93;100249.25;5310153;27;20348;-93
2024/04/18 10:15:51;;;;;;;;;;;;;;;13.29;47.82;100247.09;5284577;27;19974;-87
2024/04/18 10:18:16;;;;;;;;;;;;;;;13.35;47.65;100240.63;5282453;27;19935;-85
2024/04/18 10:20:42;;;;;;;;;;;;;;;13.20;48.34;100247.69;5280746;27;20344;-85
2024/04/18 10:23:14;;;;;;;;;;;;;;;13.36;49.29;100243.13;5282384;27;19934;-87
2024/04/18 10:25:45;;;;;;;;;;;;;;;13.44;47.29;100240.84;5282430;27;19927;-86
2024/04/18 10:28:20;;;;;;;;;;;;;;;13.69;47.63;100260.00;5283783;27;19926;-88
2024/04/18 10:30:45;;;;;;;;;;;;;;;13.92;46.27;100240.22;5282273;27;19935;-86
2024/04/18 10:33:11;;;;;;;;;;;;;;;14.07;46.74;100244.38;5281096;27;19938;-91
2024/04/18 10:35:36;;;;;;;;;;;;;;;14.32;45.11;100243.50;5282179;27;20088;-84
2024/04/18 10:38:02;;;;;;;;;;;;;;;13.97;44.93;100258.97;5311048;26;19934;-89
2024/04/18 10:40:28;;;;;;;;;;;;;;;13.89;44.20;100254.28;5281277;27;20042;-86
2024/04/18 10:43:06;;;;;;;;;;;;;;;13.68;46.19;100263.53;5282111;27;20368;-89
2024/04/18 10:45:31;;;;;;;;;;;;;;;13.68;45.32;100268.75;5281637;27;20345;-89
2024/04/18 10:47:57;;;;;;;;;;;;;;;13.63;46.63;100250.84;5282291;27;20006;-90
2024/04/18 10:50:22;;;;;;;;;;;;;;;13.71;46.88;100252.94;5279071;27;19934;-82
2024/04/18 10:52:47;;;;;;;;;;;;;;;13.70;46.01;100251.28;5269460;27;20367;-86
2024/04/18 10:55:13;;;;;;;;;;;;;;;13.77;46.36;100273.31;5308104;27;20408;-88
2024/04/18 10:57:38;;;;;;;;;;;;;;;13.79;44.97;100242.84;5308362;27;19934;-87
2024/04/18 11:00:04;;;;;;;;;;;;;;;13.94;45.50;100253.94;5282032;27;19927;-91
2024/04/18 11:02:29;;;;;;;;;;;;;;;14.08;45.24;100261.66;5282915;27;19926;-86
2024/04/18 11:04:54;;;;;;;;;;;;;;;14.17;44.71;100260.19;5263330;27;19926;-91
2024/04/18 11:07:20;;;;;;;;;;;;;;;14.24;45.52;100254.44;5282016;27;19927;-89
2024/04/18 11:09:45;;;;;;;;;;;;;;;14.41;45.02;100263.66;5280967;27;19937;-88
2024/04/18 11:12:11;;;;;;;;;;;;;;;14.59;44.02;100257.19;5272747;27;19926;-88
2024/04/18 11:14:36;;;;;;;;;;;;;;;14.46;44.98;100256.41;5281243;27;19934;-91
2024/04/18 11:17:01;;;;;;;;;;;;;;;14.45;45.29;100265.13;5281943;27;19933;-89
2024/04/18 11:19:29;;;;;;;;;;;;;;;14.71;44.15;100270.25;5262612;27;19977;-86
2024/04/18 11:21:55;;;;;;;;;;;;;;;14.49;44.53;100263.16;5308913;27;19927;-83
2024/04/18 11:24:21;;;;;;;;;;;;;;;14.58;43.80;100257.31;5277742;27;19958;-85
2024/04/18 11:26:48;;;;;;;;;;;;;;;14.70;43.05;100263.41;5278976;27;20004;-83
2024/04/18 11:29:13;;;;;;;;;;;;;;;14.59;43.56;100262.41;5278246;27;19997;-84
2024/04/18 11:31:39;;;;;;;;;;;;;;;14.50;43.73;100257.84;5306111;27;19962;-85
2024/04/18 11:34:04;;;;;;;;;;;;;;;14.42;44.79;100257.50;5279588;27;19934;-81
2024/04/18 11:36:29;;;;;;;;;;;;;;;14.33;43.50;100272.00;5279506;27;19935;-84
2024/04/18 11:39:00;;;;;;;;;;;;;;;14.03;44.41;100268.94;5277893;27;20337;-86
2024/04/18 11:41:27;;;;;;;;;;;;;;;14.02;44.82;100275.06;5309685;27;19937;-90
2024/04/18 11:43:53;;;;;;;;;;;;;;;14.21;42.69;100277.25;5310803;27;19934;-92
2024/04/18 11:46:19;;;;;;;;;;;;;;;14.29;43.65;100269.72;5311690;27;20418;-84
2024/04/18 11:48:44;;;;;;;;;;;;;;;14.07;44.93;100279.03;5272595;27;19927;-82
2024/04/18 11:51:09;;;;;;;;;;;;;;;14.02;44.83;100275.91;5306019;27;19926;-85
2024/04/18 11:56:38;;;;;;;;;;;;;;;14.14;45.46;100286.41;5294025;27;20394;-83
2024/04/18 11:59:03;;;;;;;;;;;;;;;14.06;45.32;100279.97;5311433;27;20376;-82
2024/04/18 12:01:31;;;;;;;;;;;;;;;14.03;45.10;100280.16;5310372;27;19934;-87
2024/04/18 12:03:56;;;;;;;;;;;;;;;14.25;46.76;100276.06;5279878;27;19926;-82
2024/04/18 12:06:21;;;;;;;;;;;;;;;14.40;45.89;100285.41;5309893;27;19933;-85
2024/04/18 12:08:47;;;;;;;;;;;;;;;14.70;46.22;100286.81;5280057;27;19934;-84
2024/04/18 12:11:12;;;;;;;;;;;;;;;14.80;46.31;100293.03;5310786;27;19953;-90
2024/04/18 12:13:37;;;;;;;;;;;;;;;14.69;44.74;100308.59;5305615;27;20319;-83
2024/04/18 12:16:03;;;;;;;;;;;;;;;14.48;45.86;100301.38;5279220;27;20322;-82
2024/04/18 12:18:28;;;;;;;;;;;;;;;14.45;45.68;100298.97;5310573;27;19927;-90
2024/04/18 12:20:53;;;;;;;;;;;;;;;14.39;46.56;100306.34;5272941;27;19926;-83
2024/04/18 12:23:19;;;;;;;;;;;;;;;14.49;44.51;100307.41;5281244;27;20299;-87
2024/04/18 12:25:44;;;;;;;;;;;;;;;14.49;44.81;100303.03;5282233;27;19926;-85
2024/04/18 12:28:09;;;;;;;;;;;;;;;14.59;45.89;100314.47;5278267;27;19935;-87
2024/04/18 12:30:35;;;;;;;;;;;;;;;14.39;45.90;100304.59;5278762;27;19934;-85
2024/04/18 12:33:00;;;;;;;;;;;;;;;14.32;45.85;100313.75;5309832;27;19996;-84
2024/04/18 12:35:25;;;;;;;;;;;;;;;14.06;45.53;100320.75;5282101;27;19934;-84
2024/04/18 12:37:51;;;;;;;;;;;;;;;14.04;45.63;100325.22;5311946;27;20353;-89
2024/04/18 12:40:16;;;;;;;;;;;;;;;14.13;45.69;100326.34;5276619;27;19938;-85
2024/04/18 12:42:41;;;;;;;;;;;;;;;14.27;46.37;100313.25;5277377;27;20356;-86